Time;durP1;ratioP1;P1;durP2;ratioP2;P2;SDS_P1;SDS_P2;PMS_P1;PMS_P2;Temp;Humidity;BMP_temperature;BMP_pressure;BME280_temperature;BME280_humidity;BME280_pressure;Samples;Min_cycle;Max_cycle;Signal;HPM_P1;HPM_P2
2021/12/26 00:01:22;;;;;;;1999.90;999.90;;;-7.90;99.90;;;;;;5050274;28;20226;-66
2021/12/26 00:03:49;;;;;;;1999.90;999.90;;;-7.90;99.90;;;;;;5050358;28;20196;-66
2021/12/26 00:06:19;;;;;;;1999.90;999.90;;;-8.00;99.90;;;;;;5050417;28;20257;-67
2021/12/26 00:08:47;;;;;;;1999.90;999.90;;;-8.10;99.90;;;;;;5050658;28;20226;-67
2021/12/26 00:13:43;;;;;;;1999.90;999.90;;;-8.10;99.90;;;;;;5062596;28;20581;-68
2021/12/26 00:16:12;;;;;;;1999.90;999.90;;;-8.20;99.90;;;;;;5071809;28;20265;-67
2021/12/26 00:18:42;;;;;;;1999.90;999.90;;;-8.20;99.90;;;;;;5072384;28;20233;-67
2021/12/26 00:21:09;;;;;;;1999.90;999.90;;;-8.20;99.90;;;;;;5071968;28;20202;-66
2021/12/26 00:23:36;;;;;;;1999.90;999.90;;;-8.20;99.90;;;;;;5051996;28;20265;-65
2021/12/26 00:26:03;;;;;;;1999.90;999.90;;;-8.20;99.90;;;;;;5052588;28;20234;-66
2021/12/26 00:28:30;;;;;;;1999.90;999.90;;;-8.40;99.90;;;;;;5052024;28;20195;-66
2021/12/26 00:30:57;;;;;;;1999.90;999.90;;;-8.40;99.90;;;;;;5051626;28;20227;-66
2021/12/26 00:33:26;;;;;;;1999.90;999.90;;;-8.40;99.90;;;;;;5051717;28;20639;-66
2021/12/26 00:35:53;;;;;;;1999.90;999.90;;;-8.50;99.90;;;;;;5052010;28;20262;-67
2021/12/26 00:38:19;;;;;;;1999.90;999.90;;;-8.60;99.90;;;;;;5052058;28;20196;-66
2021/12/26 00:40:46;;;;;;;1999.90;999.90;;;-8.70;99.90;;;;;;5052101;28;20196;-66
2021/12/26 00:43:13;;;;;;;1999.90;999.90;;;-8.70;99.90;;;;;;5051483;28;20277;-67
2021/12/26 00:45:41;;;;;;;1999.90;999.90;;;-8.70;99.90;;;;;;5051916;28;20245;-66
2021/12/26 00:48:08;;;;;;;1999.90;999.90;;;-8.70;99.90;;;;;;5051125;28;20206;-67
2021/12/26 00:50:39;;;;;;;1999.90;999.90;;;-8.70;99.90;;;;;;5051914;28;20220;-67
2021/12/26 00:53:06;;;;;;;1999.90;999.90;;;-8.70;99.90;;;;;;5051685;28;20220;-66
2021/12/26 00:55:33;;;;;;;1999.90;999.90;;;-8.70;99.90;;;;;;5052033;28;20265;-67
2021/12/26 00:58:00;;;;;;;1999.90;999.90;;;-8.70;99.90;;;;;;5051461;28;20192;-67
2021/12/26 01:00:30;;;;;;;1999.90;999.90;;;-8.80;99.90;;;;;;5051714;28;20257;-66
2021/12/26 01:02:59;;;;;;;1999.90;999.90;;;-8.80;99.90;;;;;;5051654;28;20277;-66
2021/12/26 01:05:26;;;;;;;1999.90;999.90;;;-8.70;99.90;;;;;;5052723;28;20770;-67
2021/12/26 01:07:58;;;;;;;1999.90;999.90;;;-8.70;99.90;;;;;;5052002;28;20200;-66
2021/12/26 01:10:27;;;;;;;1999.90;999.90;;;-8.70;99.90;;;;;;5051261;28;20224;-67
2021/12/26 01:12:54;;;;;;;1999.90;999.90;;;-8.80;99.90;;;;;;5051400;28;20239;-66
2021/12/26 01:15:23;;;;;;;1999.90;999.90;;;-8.90;99.90;;;;;;5051756;28;20294;-67
2021/12/26 01:17:55;;;;;;;1999.90;999.90;;;-8.90;99.90;;;;;;5051090;28;20551;-67
2021/12/26 01:20:38;;;;;;;1999.90;999.90;;;-8.80;99.90;;;;;;5051120;28;20274;-67
2021/12/26 01:23:06;;;;;;;1999.90;999.90;;;-8.90;99.90;;;;;;5051443;28;20224;-66
2021/12/26 01:25:33;;;;;;;1999.90;999.90;;;-8.90;99.90;;;;;;5050883;28;20200;-66
2021/12/26 01:28:00;;;;;;;1999.90;999.90;;;-8.80;99.90;;;;;;5031722;28;20205;-66
2021/12/26 01:30:27;;;;;;;1999.90;999.90;;;-8.70;99.90;;;;;;5031435;28;20261;-66
2021/12/26 01:32:53;;;;;;;1999.90;999.90;;;-8.80;99.90;;;;;;5050918;28;20265;-66
2021/12/26 01:35:20;;;;;;;1999.90;999.90;;;-8.80;99.90;;;;;;5051225;28;20204;-66
2021/12/26 01:37:47;;;;;;;1999.90;999.90;;;-9.00;99.90;;;;;;5051321;28;20207;-67
2021/12/26 01:40:16;;;;;;;1999.90;999.90;;;-9.00;99.90;;;;;;5051157;28;20207;-67
2021/12/26 01:42:42;;;;;;;1999.90;999.90;;;-9.00;99.90;;;;;;5051179;28;20230;-66
2021/12/26 01:45:11;;;;;;;1999.90;999.90;;;-9.00;99.90;;;;;;5050905;28;20208;-66
2021/12/26 01:47:38;;;;;;;1999.90;999.90;;;-9.10;99.90;;;;;;5051649;28;20203;-67
2021/12/26 01:50:05;;;;;;;1999.90;999.90;;;-9.10;99.90;;;;;;5050823;28;20614;-67
2021/12/26 01:52:32;;;;;;;1999.90;999.90;;;-9.10;99.90;;;;;;5050884;28;20672;-66
2021/12/26 01:55:12;;;;;;;1999.90;999.90;;;-9.10;99.90;;;;;;5050800;28;20200;-65
2021/12/26 01:57:40;;;;;;;1999.90;999.90;;;-9.10;99.90;;;;;;5035183;28;20192;-66
2021/12/26 02:00:08;;;;;;;1999.90;999.90;;;-9.00;99.90;;;;;;5035570;28;20266;-66
2021/12/26 02:02:34;;;;;;;1999.90;999.90;;;-9.00;99.90;;;;;;5055006;28;20228;-67
2021/12/26 02:05:01;;;;;;;1999.90;999.90;;;-9.00;99.90;;;;;;5054540;28;20234;-67
2021/12/26 02:07:28;;;;;;;1999.90;999.90;;;-9.00;99.90;;;;;;5054266;28;20578;-67
2021/12/26 02:09:55;;;;;;;1999.90;999.90;;;-9.00;99.90;;;;;;5054601;28;20207;-66
2021/12/26 02:12:21;;;;;;;1999.90;999.90;;;-8.80;99.90;;;;;;5053918;28;20293;-67
2021/12/26 02:14:49;;;;;;;1999.90;999.90;;;-8.70;99.90;;;;;;5054690;28;20212;-67
2021/12/26 02:17:16;;;;;;;1999.90;999.90;;;-8.80;99.90;;;;;;5054382;28;20234;-66
2021/12/26 02:19:45;;;;;;;1999.90;999.90;;;-9.00;99.90;;;;;;5054100;28;20349;-66
2021/12/26 02:22:15;;;;;;;1999.90;999.90;;;-9.10;99.90;;;;;;5071513;28;20215;-67
2021/12/26 02:25:11;;;;;;;1999.90;999.90;;;-9.10;99.90;;;;;;5056335;28;20683;-66
2021/12/26 02:27:42;;;;;;;1999.90;999.90;;;-9.10;99.90;;;;;;5054150;28;20200;-67
2021/12/26 02:30:12;;;;;;;1999.90;999.90;;;-9.10;99.90;;;;;;5053826;28;20202;-66
2021/12/26 02:32:38;;;;;;;1999.90;999.90;;;-9.00;99.90;;;;;;5053501;28;20223;-67
2021/12/26 02:35:08;;;;;;;1999.90;999.90;;;-9.00;99.90;;;;;;5054052;28;20262;-66
2021/12/26 02:37:35;;;;;;;1999.90;999.90;;;-9.00;99.90;;;;;;5054152;28;20286;-66
2021/12/26 02:40:01;;;;;;;1999.90;999.90;;;-8.90;99.90;;;;;;5053837;28;20207;-65
2021/12/26 02:42:28;;;;;;;1999.90;999.90;;;-8.70;99.90;;;;;;5053896;28;20212;-67
2021/12/26 02:44:55;;;;;;;1999.90;999.90;;;-8.90;99.90;;;;;;5053216;28;20253;-66
2021/12/26 02:47:32;;;;;;;1999.90;999.90;;;-8.90;99.90;;;;;;5053847;28;20208;-67
2021/12/26 02:50:00;;;;;;;1999.90;999.90;;;-9.00;99.90;;;;;;5053078;28;20253;-66
2021/12/26 02:52:28;;;;;;;1999.90;999.90;;;-8.90;99.90;;;;;;5053755;28;20227;-66
2021/12/26 02:54:58;;;;;;;1999.90;999.90;;;-8.80;99.90;;;;;;5042813;28;20251;-66
2021/12/26 02:57:24;;;;;;;1999.90;999.90;;;-8.80;99.90;;;;;;5053852;28;20207;-66
2021/12/26 02:59:51;;;;;;;1999.90;999.90;;;-8.60;99.90;;;;;;5052128;28;20253;-69
2021/12/26 03:02:18;;;;;;;1999.90;999.90;;;-8.70;99.90;;;;;;5052887;28;20278;-66
2021/12/26 03:04:44;;;;;;;1999.90;999.90;;;-8.80;99.90;;;;;;5053733;28;20207;-66
2021/12/26 03:07:11;;;;;;;1999.90;999.90;;;-8.70;99.90;;;;;;5053478;28;20207;-66
2021/12/26 03:09:45;;;;;;;1999.90;999.90;;;-8.80;99.90;;;;;;5053307;28;20269;-66
2021/12/26 03:12:12;;;;;;;1999.90;999.90;;;-8.80;99.90;;;;;;5052862;28;20228;-66
2021/12/26 03:14:40;;;;;;;1999.90;999.90;;;-8.80;99.90;;;;;;5052770;28;20663;-66
2021/12/26 03:17:07;;;;;;;1999.90;999.90;;;-8.90;99.90;;;;;;5053509;28;20286;-65
2021/12/26 03:19:35;;;;;;;1999.90;999.90;;;-9.00;99.90;;;;;;5053275;28;20333;-66
2021/12/26 03:22:03;;;;;;;1999.90;999.90;;;-9.10;99.90;;;;;;5052603;28;20212;-66
2021/12/26 03:24:30;;;;;;;1999.90;999.90;;;-9.20;99.90;;;;;;5053045;28;20213;-66
2021/12/26 03:27:00;;;;;;;1999.90;999.90;;;-9.20;99.90;;;;;;5052586;28;20200;-64
2021/12/26 03:29:27;;;;;;;1999.90;999.90;;;-9.20;99.90;;;;;;5052973;28;20640;-66
2021/12/26 03:31:54;;;;;;;1999.90;999.90;;;-9.20;99.90;;;;;;5052233;28;20224;-66
2021/12/26 03:34:21;;;;;;;1999.90;999.90;;;-9.30;99.90;;;;;;5053104;28;20614;-65
2021/12/26 03:36:51;;;;;;;1999.90;999.90;;;-9.30;99.90;;;;;;5055997;28;20676;-67
2021/12/26 03:39:17;;;;;;;1999.90;999.90;;;-9.40;99.90;;;;;;5072904;28;20208;-67
2021/12/26 03:41:45;;;;;;;1999.90;999.90;;;-9.30;99.90;;;;;;5070036;28;20220;-65
2021/12/26 03:44:13;;;;;;;1999.90;999.90;;;-9.40;99.90;;;;;;5074970;28;20222;-66
2021/12/26 03:46:40;;;;;;;1999.90;999.90;;;-9.60;99.90;;;;;;5060920;28;20203;-66
2021/12/26 03:49:06;;;;;;;1999.90;999.90;;;-9.70;99.90;;;;;;5053851;28;20547;-66
2021/12/26 03:51:34;;;;;;;1999.90;999.90;;;-9.70;99.90;;;;;;5052435;28;20227;-66
2021/12/26 03:54:05;;;;;;;1999.90;999.90;;;-9.60;99.90;;;;;;5052918;28;20664;-66
2021/12/26 03:56:32;;;;;;;1999.90;999.90;;;-9.50;99.90;;;;;;5052811;28;20192;-65
2021/12/26 03:58:59;;;;;;;1999.90;999.90;;;-9.60;99.90;;;;;;5052749;28;20213;-66
2021/12/26 04:01:27;;;;;;;1999.90;999.90;;;-9.70;99.90;;;;;;5051549;28;20208;-66
2021/12/26 04:03:54;;;;;;;1999.90;999.90;;;-9.80;99.90;;;;;;5053261;28;20215;-65
2021/12/26 04:06:21;;;;;;;1999.90;999.90;;;-9.80;99.90;;;;;;5052482;28;20212;-66
2021/12/26 04:08:48;;;;;;;1999.90;999.90;;;-9.80;99.90;;;;;;5052257;28;20781;-65
2021/12/26 04:11:14;;;;;;;1999.90;999.90;;;-9.80;99.90;;;;;;5052310;28;20199;-65
2021/12/26 04:13:41;;;;;;;1999.90;999.90;;;-9.80;99.90;;;;;;5052089;28;20738;-66
2021/12/26 04:16:08;;;;;;;1999.90;999.90;;;-9.80;99.90;;;;;;5052150;28;20203;-66
2021/12/26 04:18:36;;;;;;;1999.90;999.90;;;-9.70;99.90;;;;;;5052271;28;20199;-66
2021/12/26 04:21:05;;;;;;;1999.90;999.90;;;-9.70;99.90;;;;;;5052108;28;20200;-66
2021/12/26 04:23:32;;;;;;;1999.90;999.90;;;-9.70;99.90;;;;;;5052672;28;20215;-66
2021/12/26 04:25:58;;;;;;;1999.90;999.90;;;-9.70;99.90;;;;;;5051921;28;20199;-66
2021/12/26 04:28:25;;;;;;;1999.90;999.90;;;-9.70;99.90;;;;;;5052769;28;20208;-65
2021/12/26 04:30:53;;;;;;;1999.90;999.90;;;-9.80;99.90;;;;;;5052189;28;20254;-66
2021/12/26 04:33:20;;;;;;;1999.90;999.90;;;-9.80;99.90;;;;;;5055460;28;20227;-67
2021/12/26 04:35:48;;;;;;;1999.90;999.90;;;-9.80;99.90;;;;;;5068970;28;20211;-66
2021/12/26 04:38:15;;;;;;;1999.90;999.90;;;-9.70;99.90;;;;;;5052121;28;20203;-64
2021/12/26 04:40:42;;;;;;;1999.90;999.90;;;-9.60;99.90;;;;;;5052190;28;20211;-65
2021/12/26 04:43:09;;;;;;;1999.90;999.90;;;-9.60;99.90;;;;;;5052173;28;20219;-62
2021/12/26 04:45:36;;;;;;;1999.90;999.90;;;-9.60;99.90;;;;;;5052026;28;20234;-66
2021/12/26 04:48:03;;;;;;;1999.90;999.90;;;-9.70;99.90;;;;;;5051972;28;20633;-66
2021/12/26 04:50:30;;;;;;;1999.90;999.90;;;-9.60;99.90;;;;;;5051732;28;20227;-65
2021/12/26 04:52:58;;;;;;;1999.90;999.90;;;-9.70;99.90;;;;;;5051333;28;20223;-66
2021/12/26 04:55:28;;;;;;;1999.90;999.90;;;-9.70;99.90;;;;;;5051639;28;20199;-66
2021/12/26 04:57:56;;;;;;;1999.90;999.90;;;-9.70;99.90;;;;;;5051764;28;20200;-65
2021/12/26 05:00:26;;;;;;;1999.90;999.90;;;-9.60;99.90;;;;;;5051522;28;20200;-65
2021/12/26 05:02:53;;;;;;;1999.90;999.90;;;-9.60;99.90;;;;;;5051457;28;20711;-66
2021/12/26 05:05:21;;;;;;;1999.90;999.90;;;-9.60;99.90;;;;;;5051353;28;20694;-66
2021/12/26 05:07:49;;;;;;;1999.90;999.90;;;-9.40;99.90;;;;;;5051522;28;20595;-66
2021/12/26 05:10:19;;;;;;;1999.90;999.90;;;-9.60;99.90;;;;;;5051684;28;20204;-66
2021/12/26 05:12:46;;;;;;;1999.90;999.90;;;-9.70;99.90;;;;;;5051638;28;20223;-66
2021/12/26 05:15:16;;;;;;;1999.90;999.90;;;-9.60;99.90;;;;;;5051879;28;20208;-63
2021/12/26 05:17:43;;;;;;;1999.90;999.90;;;-9.70;99.90;;;;;;5051643;28;20200;-66
2021/12/26 05:20:11;;;;;;;1999.90;999.90;;;-9.70;99.90;;;;;;5050920;28;20203;-65
2021/12/26 05:22:39;;;;;;;1999.90;999.90;;;-9.70;99.90;;;;;;5051533;28;20216;-64
2021/12/26 05:25:07;;;;;;;1999.90;999.90;;;-9.70;99.90;;;;;;5051908;28;20617;-65
2021/12/26 05:27:36;;;;;;;1999.90;999.90;;;-9.70;99.90;;;;;;5051398;28;20222;-65
2021/12/26 05:30:04;;;;;;;1999.90;999.90;;;-9.70;99.90;;;;;;5051620;28;20337;-65
2021/12/26 05:32:31;;;;;;;1999.90;999.90;;;-9.80;99.90;;;;;;5054361;28;20216;-66
2021/12/26 05:34:57;;;;;;;1999.90;999.90;;;-9.80;99.90;;;;;;5055596;28;20208;-66
2021/12/26 05:37:24;;;;;;;1999.90;999.90;;;-9.80;99.90;;;;;;5055079;28;20245;-65
2021/12/26 05:39:51;;;;;;;1999.90;999.90;;;-9.90;99.90;;;;;;5055342;28;20272;-67
2021/12/26 05:42:18;;;;;;;1999.90;999.90;;;-9.80;99.90;;;;;;5054856;28;20258;-67
2021/12/26 05:44:48;;;;;;;1999.90;999.90;;;-9.90;99.90;;;;;;5055008;28;20679;-66
2021/12/26 05:47:16;;;;;;;1999.90;999.90;;;-9.90;99.90;;;;;;5054483;28;20288;-66
2021/12/26 05:49:43;;;;;;;1999.90;999.90;;;-9.90;99.90;;;;;;5054927;28;20614;-66
2021/12/26 05:52:10;;;;;;;1999.90;999.90;;;-9.90;99.90;;;;;;5054258;28;21003;-66
2021/12/26 05:54:37;;;;;;;1999.90;999.90;;;-9.90;99.90;;;;;;5055180;28;20261;-66
2021/12/26 05:57:05;;;;;;;1999.90;999.90;;;-9.90;99.90;;;;;;5054567;28;20203;-66
2021/12/26 05:59:32;;;;;;;1999.90;999.90;;;-9.80;99.90;;;;;;5054185;28;20215;-66
2021/12/26 06:02:00;;;;;;;1999.90;999.90;;;-9.90;99.90;;;;;;5054709;28;20212;-66
2021/12/26 06:04:26;;;;;;;1999.90;999.90;;;-9.90;99.90;;;;;;5054814;28;20607;-66
2021/12/26 06:06:53;;;;;;;1999.90;999.90;;;-9.90;99.90;;;;;;5054528;28;20204;-66
2021/12/26 06:09:20;;;;;;;1999.90;999.90;;;-9.80;99.90;;;;;;5054558;28;20199;-66
2021/12/26 06:14:19;;;;;;;1999.90;999.90;;;-9.90;99.90;;;;;;5022813;28;20344;-65
2021/12/26 06:16:46;;;;;;;1999.90;999.90;;;-9.90;99.90;;;;;;5034011;28;20731;-66
2021/12/26 06:19:14;;;;;;;1999.90;999.90;;;-9.90;99.90;;;;;;5033981;28;20262;-65
2021/12/26 06:21:40;;;;;;;1999.90;999.90;;;-10.00;99.90;;;;;;5033707;28;20197;-66
2021/12/26 06:24:08;;;;;;;1999.90;999.90;;;-10.10;99.90;;;;;;5014226;28;20201;-65
2021/12/26 06:26:35;;;;;;;1999.90;999.90;;;-10.10;99.90;;;;;;5013281;28;20267;-65
2021/12/26 06:29:02;;;;;;;1999.90;999.90;;;-10.10;99.90;;;;;;5014509;28;20267;-66
2021/12/26 06:31:29;;;;;;;1999.90;999.90;;;-10.10;99.90;;;;;;5013659;28;20209;-66
2021/12/26 06:33:55;;;;;;;1999.90;999.90;;;-10.20;99.90;;;;;;5014126;28;20271;-66
2021/12/26 06:36:23;;;;;;;1999.90;999.90;;;-10.30;99.90;;;;;;5013209;28;20681;-66
2021/12/26 06:38:50;;;;;;;1999.90;999.90;;;-10.30;99.90;;;;;;5014359;28;20209;-65
2021/12/26 06:41:17;;;;;;;1999.90;999.90;;;-10.30;99.90;;;;;;5013027;28;20265;-66
2021/12/26 06:43:44;;;;;;;1999.90;999.90;;;-10.10;99.90;;;;;;5013814;28;20217;-66
2021/12/26 06:46:11;;;;;;;1999.90;999.90;;;-10.40;99.90;;;;;;5013845;28;20202;-66
2021/12/26 06:48:39;;;;;;;1999.90;999.90;;;-10.40;99.90;;;;;;5013774;28;20201;-65
2021/12/26 06:51:06;;;;;;;1999.90;999.90;;;-10.30;99.90;;;;;;5013448;28;20701;-66
2021/12/26 06:53:34;;;;;;;1999.90;999.90;;;-10.20;99.90;;;;;;5013582;28;20579;-65
2021/12/26 06:56:01;;;;;;;1999.90;999.90;;;-10.30;99.90;;;;;;5013534;28;20272;-66
2021/12/26 06:58:28;;;;;;;1999.90;999.90;;;-10.20;99.90;;;;;;5013560;28;20205;-65
2021/12/26 07:00:54;;;;;;;1999.90;999.90;;;-10.20;99.90;;;;;;5013470;28;20205;-66
2021/12/26 07:03:21;;;;;;;1999.90;999.90;;;-10.20;99.90;;;;;;5013524;28;20250;-66
2021/12/26 07:05:47;;;;;;;1999.90;999.90;;;-10.20;99.90;;;;;;5013660;28;20216;-66
2021/12/26 07:08:14;;;;;;;1999.90;999.90;;;-10.20;99.90;;;;;;5012913;28;20259;-66
2021/12/26 07:10:43;;;;;;;1999.90;999.90;;;-10.30;99.90;;;;;;5013005;28;20812;-66
2021/12/26 07:13:10;;;;;;;1999.90;999.90;;;-10.30;99.90;;;;;;5013067;28;20225;-66
2021/12/26 07:15:37;;;;;;;1999.90;999.90;;;-10.30;99.90;;;;;;5012327;28;20685;-65
2021/12/26 07:18:04;;;;;;;1999.90;999.90;;;-10.30;99.90;;;;;;5013320;28;20208;-66
2021/12/26 07:20:31;;;;;;;1999.90;999.90;;;-10.20;99.90;;;;;;5012534;28;20201;-66
2021/12/26 07:22:58;;;;;;;1999.90;999.90;;;-10.30;99.90;;;;;;5013288;28;20225;-65
2021/12/26 07:25:25;;;;;;;1999.90;999.90;;;-10.30;99.90;;;;;;5013530;28;20213;-66
2021/12/26 07:27:53;;;;;;;1999.90;999.90;;;-10.30;99.90;;;;;;5013697;28;20631;-66
2021/12/26 07:30:19;;;;;;;1999.90;999.90;;;-10.40;99.90;;;;;;5012341;28;20209;-65
2021/12/26 07:32:46;;;;;;;1999.90;999.90;;;-10.30;99.90;;;;;;5012810;28;20224;-64
2021/12/26 07:35:13;;;;;;;1999.90;999.90;;;-10.30;99.90;;;;;;5013288;28;20266;-65
2021/12/26 07:37:40;;;;;;;1999.90;999.90;;;-10.20;99.90;;;;;;5012805;28;20201;-65
2021/12/26 07:40:08;;;;;;;1999.90;999.90;;;-10.30;99.90;;;;;;5012385;28;20201;-66
2021/12/26 07:42:34;;;;;;;1999.90;999.90;;;-10.40;99.90;;;;;;5011855;28;20283;-66
2021/12/26 07:45:03;;;;;;;1999.90;999.90;;;-10.50;99.90;;;;;;5012394;28;20228;-65
2021/12/26 07:47:29;;;;;;;1999.90;999.90;;;-10.50;99.90;;;;;;5013232;28;20208;-66
2021/12/26 07:49:56;;;;;;;1999.90;999.90;;;-10.50;99.90;;;;;;5012081;28;20197;-66
2021/12/26 07:52:28;;;;;;;1999.90;999.90;;;-10.40;99.90;;;;;;5012295;28;20221;-66
2021/12/26 07:54:55;;;;;;;1999.90;999.90;;;-10.60;99.90;;;;;;4996894;28;20216;-66
2021/12/26 07:57:22;;;;;;;1999.90;999.90;;;-10.60;99.90;;;;;;5012521;28;20200;-65
2021/12/26 07:59:48;;;;;;;1999.90;999.90;;;-10.50;99.90;;;;;;5012221;28;20728;-65
2021/12/26 08:02:20;;;;;;;1999.90;999.90;;;-10.50;99.90;;;;;;5012189;28;20841;-66
2021/12/26 08:04:47;;;;;;;1999.90;999.90;;;-10.70;99.90;;;;;;5012054;28;20578;-66
2021/12/26 08:07:14;;;;;;;1999.90;999.90;;;-10.70;99.90;;;;;;5012390;28;20568;-66
2021/12/26 08:09:41;;;;;;;1999.90;999.90;;;-10.50;99.90;;;;;;5011373;28;20205;-64
2021/12/26 08:12:09;;;;;;;1999.90;999.90;;;-10.50;99.90;;;;;;5012021;28;20221;-66
2021/12/26 08:14:35;;;;;;;1999.90;999.90;;;-10.30;99.90;;;;;;5012022;28;20229;-66
2021/12/26 08:17:02;;;;;;;1999.90;999.90;;;-10.30;99.90;;;;;;5013076;28;20209;-66
2021/12/26 08:19:30;;;;;;;1999.90;999.90;;;-9.90;99.90;;;;;;5014043;28;20205;-66
2021/12/26 08:21:57;;;;;;;1999.90;999.90;;;-10.20;99.90;;;;;;5026525;28;20201;-65
2021/12/26 08:24:26;;;;;;;1999.90;999.90;;;-10.10;99.90;;;;;;5026473;28;20259;-66
2021/12/26 08:26:53;;;;;;;1999.90;999.90;;;-10.00;99.90;;;;;;5018498;28;20203;-66
2021/12/26 08:29:21;;;;;;;1999.90;999.90;;;-9.90;99.90;;;;;;5010751;28;20201;-67
2021/12/26 08:31:50;;;;;;;1999.90;999.90;;;-9.70;99.90;;;;;;5010644;28;20213;-65
2021/12/26 08:34:21;;;;;;;1999.90;999.90;;;-9.60;99.90;;;;;;5011433;28;20719;-66
2021/12/26 08:36:58;;;;;;;1999.90;999.90;;;-9.50;99.90;;;;;;5011653;28;20209;-66
2021/12/26 08:39:25;;;;;;;1999.90;999.90;;;-9.60;99.90;;;;;;5011838;28;20637;-66
2021/12/26 08:41:53;;;;;;;1999.90;999.90;;;-9.50;99.90;;;;;;5011178;28;20206;-66
2021/12/26 08:44:20;;;;;;;1999.90;999.90;;;-9.50;99.90;;;;;;5011931;28;20201;-65
2021/12/26 08:46:47;;;;;;;1999.90;999.90;;;-9.40;99.90;;;;;;5011474;28;20197;-64
2021/12/26 08:49:14;;;;;;;1999.90;999.90;;;-9.30;99.90;;;;;;5011632;28;20209;-66
2021/12/26 08:51:42;;;;;;;1999.90;999.90;;;-9.20;99.90;;;;;;5011813;28;20204;-66
2021/12/26 08:54:11;;;;;;;1999.90;999.90;;;-9.20;99.90;;;;;;5012030;28;20271;-65
2021/12/26 08:56:38;;;;;;;1999.90;999.90;;;-9.30;99.90;;;;;;5011891;28;20205;-65
2021/12/26 08:59:06;;;;;;;1999.90;999.90;;;-9.20;99.90;;;;;;5011190;28;20201;-65
2021/12/26 09:01:34;;;;;;;1999.90;999.90;;;-9.10;99.90;;;;;;5006730;28;20695;-65
2021/12/26 09:04:01;;;;;;;1999.90;999.90;;;-9.10;99.90;;;;;;5012197;28;20271;-65
2021/12/26 09:06:28;;;;;;;1999.90;999.90;;;-9.10;99.90;;;;;;5015100;28;20255;-64
2021/12/26 09:08:55;;;;;;;1999.90;999.90;;;-9.00;99.90;;;;;;5015393;28;20201;-65
2021/12/26 09:11:23;;;;;;;1999.90;999.90;;;-8.80;99.90;;;;;;5014932;28;20213;-64
2021/12/26 09:13:50;;;;;;;1999.90;999.90;;;-8.90;99.90;;;;;;5014504;28;20672;-64
2021/12/26 09:16:17;;;;;;;1999.90;999.90;;;-8.70;99.90;;;;;;5015686;28;20197;-64
2021/12/26 09:18:44;;;;;;;1999.90;999.90;;;-8.60;99.90;;;;;;5014845;28;20205;-64
2021/12/26 09:21:11;;;;;;;1999.90;999.90;;;-8.60;99.90;;;;;;5014728;28;20293;-64
2021/12/26 09:23:38;;;;;;;1999.90;999.90;;;-8.40;99.90;;;;;;5014792;28;20217;-65
2021/12/26 09:26:04;;;;;;;1999.90;999.90;;;-8.30;99.90;;;;;;5015177;28;20221;-65
2021/12/26 09:28:36;;;;;;;1999.90;999.90;;;-8.40;99.90;;;;;;5013221;28;20304;-65
2021/12/26 09:31:03;;;;;;;1999.90;999.90;;;-8.30;99.90;;;;;;5013993;28;20208;-65
2021/12/26 09:33:30;;;;;;;1999.90;999.90;;;-8.20;99.90;;;;;;5014643;28;20220;-65
2021/12/26 09:35:57;;;;;;;1999.90;999.90;;;-8.10;99.90;;;;;;5014862;28;20293;-65
2021/12/26 09:38:25;;;;;;;1999.90;999.90;;;-8.00;99.90;;;;;;5015328;28;20201;-65
2021/12/26 09:40:52;;;;;;;1999.90;999.90;;;-8.00;99.90;;;;;;5013888;28;20205;-65
2021/12/26 09:43:18;;;;;;;1999.90;999.90;;;-7.90;99.90;;;;;;5014966;28;20690;-65
2021/12/26 09:45:46;;;;;;;1999.90;999.90;;;-7.70;99.90;;;;;;5014827;28;20316;-65
2021/12/26 09:48:13;;;;;;;1999.90;999.90;;;-7.80;99.90;;;;;;5014482;28;20216;-65
2021/12/26 09:50:40;;;;;;;1999.90;999.90;;;-7.60;99.90;;;;;;5012923;28;20591;-65
2021/12/26 09:53:07;;;;;;;1999.90;999.90;;;-7.60;99.90;;;;;;5006650;28;20648;-64
2021/12/26 09:55:34;;;;;;;1999.90;999.90;;;-7.60;99.90;;;;;;5015014;28;20206;-66
2021/12/26 09:58:01;;;;;;;1999.90;999.90;;;-7.50;99.90;;;;;;5012659;28;20257;-66
2021/12/26 10:00:30;;;;;;;1999.90;999.90;;;-7.60;99.90;;;;;;5013028;28;20209;-67
2021/12/26 10:03:19;;;;;;;1999.90;999.90;;;-7.50;99.90;;;;;;5013647;28;20232;-67
2021/12/26 10:06:08;;;;;;;1999.90;999.90;;;-7.60;99.90;;;;;;5013254;28;20205;-67
2021/12/26 10:08:50;;;;;;;1999.90;999.90;;;-7.70;99.90;;;;;;5012975;28;20673;-67
2021/12/26 10:11:18;;;;;;;1999.90;999.90;;;-7.60;99.90;;;;;;4993924;28;20476;-66
2021/12/26 10:13:47;;;;;;;1999.90;999.90;;;-7.50;99.90;;;;;;4994868;28;20279;-67
2021/12/26 10:16:15;;;;;;;1999.90;999.90;;;-7.40;99.90;;;;;;4994060;28;20678;-67
2021/12/26 10:18:44;;;;;;;1999.90;999.90;;;-7.30;99.90;;;;;;5010586;28;20208;-67
2021/12/26 10:21:31;;;;;;;1999.90;999.90;;;-7.30;99.90;;;;;;5014304;28;20205;-67
2021/12/26 10:24:02;;;;;;;1999.90;999.90;;;-7.30;99.90;;;;;;5014465;28;20585;-67
2021/12/26 10:26:30;;;;;;;1999.90;999.90;;;-7.30;99.90;;;;;;5014288;28;20212;-67
2021/12/26 10:29:16;;;;;;;1999.90;999.90;;;-7.20;99.90;;;;;;5014298;28;20620;-67
2021/12/26 10:31:45;;;;;;;1999.90;999.90;;;-7.10;99.90;;;;;;5014149;28;20432;-67
2021/12/26 10:34:19;;;;;;;1999.90;999.90;;;-7.10;99.90;;;;;;5014365;28;20224;-67
2021/12/26 10:36:48;;;;;;;1999.90;999.90;;;-7.10;99.90;;;;;;5013939;28;20194;-67
2021/12/26 10:39:18;;;;;;;1999.90;999.90;;;-7.00;99.90;;;;;;5014011;28;20206;-66
2021/12/26 10:41:47;;;;;;;1999.90;999.90;;;-6.90;99.90;;;;;;5013876;28;20828;-64
2021/12/26 10:44:23;;;;;;;1999.90;999.90;;;-6.90;99.90;;;;;;5014093;28;20444;-66
2021/12/26 10:46:52;;;;;;;1999.90;999.90;;;-6.70;99.90;;;;;;5014118;28;20994;-66
2021/12/26 10:49:23;;;;;;;1999.90;999.90;;;-6.70;99.90;;;;;;5013855;28;20448;-67
2021/12/26 10:51:50;;;;;;;1999.90;999.90;;;-6.60;99.90;;;;;;5013209;28;20932;-66
2021/12/26 10:54:18;;;;;;;1999.90;999.90;;;-6.50;99.90;;;;;;5013941;28;20480;-67
2021/12/26 10:57:03;;;;;;;1999.90;999.90;;;-6.50;99.90;;;;;;5014024;28;20448;-67
2021/12/26 10:59:30;;;;;;;1999.90;999.90;;;-6.40;99.90;;;;;;5013811;28;20870;-67
2021/12/26 11:01:57;;;;;;;1999.90;999.90;;;-6.40;99.90;;;;;;5013618;28;20444;-66
2021/12/26 11:04:25;;;;;;;1999.90;999.90;;;-6.40;99.90;;;;;;5013797;28;20210;-67
2021/12/26 11:06:59;;;;;;;1999.90;999.90;;;-6.30;99.90;;;;;;5013024;28;20201;-65
2021/12/26 11:09:26;;;;;;;1999.90;999.90;;;-6.30;99.90;;;;;;5014407;28;20452;-67
2021/12/26 11:12:07;;;;;;;1999.90;999.90;;;-6.20;99.90;;;;;;5013291;28;20452;-67
2021/12/26 11:14:59;;;;;;;1999.90;999.90;;;-6.20;99.90;;;;;;5013219;28;20464;-66
2021/12/26 11:17:30;;;;;;;1999.90;999.90;;;-6.20;99.90;;;;;;5013438;28;20211;-67
2021/12/26 11:19:59;;;;;;;1999.90;999.90;;;-6.10;99.90;;;;;;5013045;28;20460;-67
2021/12/26 11:22:26;;;;;;;1999.90;999.90;;;-6.20;99.90;;;;;;5013526;28;20523;-66
2021/12/26 11:24:53;;;;;;;1999.90;999.90;;;-6.10;99.90;;;;;;5013443;28;20452;-67
2021/12/26 11:27:20;;;;;;;1999.90;999.90;;;-5.90;99.90;;;;;;5013303;28;20527;-67
2021/12/26 11:29:48;;;;;;;1999.90;999.90;;;-5.90;99.90;;;;;;5013136;28;20456;-67
2021/12/26 11:32:16;;;;;;;1999.90;999.90;;;-5.90;99.90;;;;;;5013825;28;20225;-67
2021/12/26 11:34:45;;;;;;;1999.90;999.90;;;-5.80;99.90;;;;;;5013468;28;20517;-67
2021/12/26 11:37:14;;;;;;;1999.90;999.90;;;-5.90;99.90;;;;;;5012958;28;20444;-67
2021/12/26 11:39:41;;;;;;;1999.90;999.90;;;-5.80;99.90;;;;;;5013136;28;20498;-67
2021/12/26 11:42:51;;;;;;;1999.90;999.90;;;-5.70;99.90;;;;;;5013171;28;21039;-67
2021/12/26 11:45:28;;;;;;;1999.90;999.90;;;-5.70;99.90;;;;;;4950461;29;20947;-66
2021/12/26 11:48:36;;;;;;;1999.90;999.90;;;-5.60;99.90;;;;;;5002816;28;20447;-67
2021/12/26 11:51:17;;;;;;;1999.90;999.90;;;-5.50;99.90;;;;;;5013050;28;20451;-67
2021/12/26 11:54:01;;;;;;;1999.90;999.90;;;-5.50;99.90;;;;;;5012754;28;20464;-67
2021/12/26 11:56:39;;;;;;;1999.90;999.90;;;-5.60;99.90;;;;;;5012815;28;20932;-66
2021/12/26 11:59:20;;;;;;;1999.90;999.90;;;-5.50;99.90;;;;;;5012580;28;20454;-67
2021/12/26 12:01:49;;;;;;;1999.90;999.90;;;-5.40;99.90;;;;;;5012464;28;20876;-66
2021/12/26 12:04:18;;;;;;;1999.90;999.90;;;-5.30;99.90;;;;;;5013055;28;20514;-68
2021/12/26 12:06:46;;;;;;;1999.90;999.90;;;-5.10;99.90;;;;;;5012597;28;20956;-67
2021/12/26 12:09:30;;;;;;;1999.90;999.90;;;-5.00;99.90;;;;;;5012239;28;20452;-67
2021/12/26 12:12:03;;;;;;;1999.90;999.90;;;-4.80;99.90;;;;;;5011083;28;20490;-67